sensor_id;sensor_type;location;lat;lon;timestamp;P1;durP1;ratioP1;P2;durP2;ratioP2
51312;SDS011;37397;53.226;10.400;2024-01-15T00:02:00;8.18;;;3.17;;
51312;SDS011;37397;53.226;10.400;2024-01-15T00:04:27;13.88;;;3.40;;
51312;SDS011;37397;53.226;10.400;2024-01-15T00:06:53;9.90;;;3.35;;
51312;SDS011;37397;53.226;10.400;2024-01-15T00:09:20;10.65;;;3.13;;
51312;SDS011;37397;53.226;10.400;2024-01-15T00:11:47;14.65;;;3.65;;
51312;SDS011;37397;53.226;10.400;2024-01-15T00:14:13;10.00;;;3.45;;
51312;SDS011;37397;53.226;10.400;2024-01-15T00:16:41;12.90;;;3.53;;
51312;SDS011;37397;53.226;10.400;2024-01-15T00:19:08;15.75;;;3.95;;
51312;SDS011;37397;53.226;10.400;2024-01-15T00:21:34;11.00;;;3.55;;
51312;SDS011;37397;53.226;10.400;2024-01-15T00:24:01;13.77;;;3.33;;
51312;SDS011;37397;53.226;10.400;2024-01-15T00:26:28;12.23;;;3.42;;
51312;SDS011;37397;53.226;10.400;2024-01-15T00:28:54;14.38;;;3.42;;
51312;SDS011;37397;53.226;10.400;2024-01-15T00:31:21;13.88;;;3.38;;
51312;SDS011;37397;53.226;10.400;2024-01-15T00:33:48;9.20;;;3.20;;
51312;SDS011;37397;53.226;10.400;2024-01-15T00:36:15;11.50;;;3.38;;
51312;SDS011;37397;53.226;10.400;2024-01-15T00:38:46;14.93;;;3.47;;
51312;SDS011;37397;53.226;10.400;2024-01-15T00:41:14;9.82;;;2.90;;
51312;SDS011;37397;53.226;10.400;2024-01-15T00:43:40;15.35;;;3.72;;
51312;SDS011;37397;53.226;10.400;2024-01-15T00:46:07;16.33;;;3.60;;
51312;SDS011;37397;53.226;10.400;2024-01-15T00:48:34;15.30;;;3.80;;
51312;SDS011;37397;53.226;10.400;2024-01-15T00:51:01;13.45;;;3.33;;
51312;SDS011;37397;53.226;10.400;2024-01-15T00:53:28;14.05;;;3.42;;
51312;SDS011;37397;53.226;10.400;2024-01-15T00:55:54;16.45;;;3.42;;
51312;SDS011;37397;53.226;10.400;2024-01-15T00:58:21;12.35;;;3.03;;
51312;SDS011;37397;53.226;10.400;2024-01-15T01:00:48;10.30;;;3.15;;
51312;SDS011;37397;53.226;10.400;2024-01-15T01:03:14;17.27;;;3.15;;
51312;SDS011;37397;53.226;10.400;2024-01-15T01:05:41;13.18;;;3.38;;
51312;SDS011;37397;53.226;10.400;2024-01-15T01:08:08;13.13;;;3.10;;
51312;SDS011;37397;53.226;10.400;2024-01-15T01:10:35;13.20;;;3.30;;
51312;SDS011;37397;53.226;10.400;2024-01-15T01:13:01;18.38;;;3.75;;
51312;SDS011;37397;53.226;10.400;2024-01-15T01:15:28;17.30;;;3.00;;
51312;SDS011;37397;53.226;10.400;2024-01-15T01:17:55;11.43;;;2.92;;
51312;SDS011;37397;53.226;10.400;2024-01-15T01:20:21;17.60;;;2.72;;
51312;SDS011;37397;53.226;10.400;2024-01-15T01:22:48;10.68;;;2.70;;
51312;SDS011;37397;53.226;10.400;2024-01-15T01:25:15;15.70;;;3.38;;
51312;SDS011;37397;53.226;10.400;2024-01-15T01:27:42;10.60;;;3.15;;
51312;SDS011;37397;53.226;10.400;2024-01-15T01:30:08;11.93;;;2.42;;
51312;SDS011;37397;53.226;10.400;2024-01-15T01:32:35;16.58;;;2.97;;
51312;SDS011;37397;53.226;10.400;2024-01-15T01:35:02;12.85;;;2.40;;
51312;SDS011;37397;53.226;10.400;2024-01-15T01:37:29;13.73;;;3.38;;
51312;SDS011;37397;53.226;10.400;2024-01-15T01:39:56;18.10;;;3.13;;
51312;SDS011;37397;53.226;10.400;2024-01-15T01:42:22;12.95;;;2.42;;
51312;SDS011;37397;53.226;10.400;2024-01-15T01:44:49;13.52;;;3.17;;
51312;SDS011;37397;53.226;10.400;2024-01-15T01:47:15;15.38;;;3.05;;
51312;SDS011;37397;53.226;10.400;2024-01-15T01:49:42;9.75;;;2.45;;
51312;SDS011;37397;53.226;10.400;2024-01-15T01:52:09;13.77;;;2.40;;
51312;SDS011;37397;53.226;10.400;2024-01-15T01:54:36;11.00;;;2.58;;
51312;SDS011;37397;53.226;10.400;2024-01-15T01:57:05;9.70;;;2.72;;
51312;SDS011;37397;53.226;10.400;2024-01-15T01:59:34;12.95;;;3.10;;
51312;SDS011;37397;53.226;10.400;2024-01-15T02:02:02;11.35;;;2.58;;
51312;SDS011;37397;53.226;10.400;2024-01-15T02:04:31;15.23;;;2.75;;
51312;SDS011;37397;53.226;10.400;2024-01-15T02:06:59;12.68;;;3.03;;
51312;SDS011;37397;53.226;10.400;2024-01-15T02:09:26;13.07;;;2.90;;
51312;SDS011;37397;53.226;10.400;2024-01-15T02:11:52;14.50;;;3.42;;
51312;SDS011;37397;53.226;10.400;2024-01-15T02:14:20;9.52;;;3.00;;
51312;SDS011;37397;53.226;10.400;2024-01-15T02:16:46;10.95;;;2.28;;
51312;SDS011;37397;53.226;10.400;2024-01-15T02:19:16;9.68;;;2.53;;
51312;SDS011;37397;53.226;10.400;2024-01-15T02:21:44;9.38;;;2.35;;
51312;SDS011;37397;53.226;10.400;2024-01-15T02:24:11;9.40;;;2.50;;
51312;SDS011;37397;53.226;10.400;2024-01-15T02:26:38;12.80;;;3.00;;
51312;SDS011;37397;53.226;10.400;2024-01-15T02:29:06;10.63;;;2.78;;
51312;SDS011;37397;53.226;10.400;2024-01-15T02:31:37;11.65;;;2.92;;
51312;SDS011;37397;53.226;10.400;2024-01-15T02:34:04;12.50;;;2.20;;
51312;SDS011;37397;53.226;10.400;2024-01-15T02:36:31;12.02;;;2.45;;
51312;SDS011;37397;53.226;10.400;2024-01-15T02:38:58;8.82;;;2.17;;
51312;SDS011;37397;53.226;10.400;2024-01-15T02:41:24;8.88;;;2.38;;
51312;SDS011;37397;53.226;10.400;2024-01-15T02:43:51;7.78;;;2.63;;
51312;SDS011;37397;53.226;10.400;2024-01-15T02:46:18;10.25;;;3.13;;
51312;SDS011;37397;53.226;10.400;2024-01-15T02:48:44;10.13;;;2.90;;
51312;SDS011;37397;53.226;10.400;2024-01-15T02:51:11;9.90;;;3.20;;
51312;SDS011;37397;53.226;10.400;2024-01-15T02:53:38;14.32;;;3.42;;
51312;SDS011;37397;53.226;10.400;2024-01-15T02:56:06;12.25;;;3.83;;
51312;SDS011;37397;53.226;10.400;2024-01-15T02:58:33;9.48;;;3.17;;
51312;SDS011;37397;53.226;10.400;2024-01-15T03:01:00;13.30;;;3.17;;
51312;SDS011;37397;53.226;10.400;2024-01-15T03:03:27;13.20;;;3.97;;
51312;SDS011;37397;53.226;10.400;2024-01-15T03:05:54;9.60;;;3.15;;
51312;SDS011;37397;53.226;10.400;2024-01-15T03:08:21;7.57;;;3.42;;
51312;SDS011;37397;53.226;10.400;2024-01-15T03:10:49;9.32;;;3.30;;
51312;SDS011;37397;53.226;10.400;2024-01-15T03:13:16;10.52;;;3.47;;
51312;SDS011;37397;53.226;10.400;2024-01-15T03:15:42;13.02;;;3.55;;
51312;SDS011;37397;53.226;10.400;2024-01-15T03:18:10;8.75;;;2.97;;
51312;SDS011;37397;53.226;10.400;2024-01-15T03:20:36;9.98;;;3.40;;
51312;SDS011;37397;53.226;10.400;2024-01-15T03:23:04;10.07;;;3.50;;
51312;SDS011;37397;53.226;10.400;2024-01-15T03:25:30;12.20;;;3.50;;
51312;SDS011;37397;53.226;10.400;2024-01-15T03:27:56;8.75;;;3.10;;
51312;SDS011;37397;53.226;10.400;2024-01-15T03:30:23;10.45;;;4.10;;
51312;SDS011;37397;53.226;10.400;2024-01-15T03:32:50;8.25;;;2.83;;
51312;SDS011;37397;53.226;10.400;2024-01-15T03:35:17;10.70;;;2.90;;
51312;SDS011;37397;53.226;10.400;2024-01-15T03:37:43;11.77;;;3.22;;
51312;SDS011;37397;53.226;10.400;2024-01-15T03:40:10;11.32;;;3.78;;
51312;SDS011;37397;53.226;10.400;2024-01-15T03:42:37;8.05;;;2.85;;
51312;SDS011;37397;53.226;10.400;2024-01-15T03:45:04;12.88;;;3.15;;
51312;SDS011;37397;53.226;10.400;2024-01-15T03:47:31;8.55;;;3.40;;
51312;SDS011;37397;53.226;10.400;2024-01-15T03:49:57;12.43;;;3.00;;
51312;SDS011;37397;53.226;10.400;2024-01-15T03:52:24;8.80;;;3.05;;
51312;SDS011;37397;53.226;10.400;2024-01-15T03:54:51;9.38;;;3.33;;
51312;SDS011;37397;53.226;10.400;2024-01-15T03:57:17;15.85;;;2.97;;
51312;SDS011;37397;53.226;10.400;2024-01-15T03:59:44;10.25;;;3.58;;
51312;SDS011;37397;53.226;10.400;2024-01-15T04:02:13;12.25;;;2.65;;
51312;SDS011;37397;53.226;10.400;2024-01-15T04:04:41;10.27;;;2.97;;
51312;SDS011;37397;53.226;10.400;2024-01-15T04:07:11;10.55;;;3.30;;
51312;SDS011;37397;53.226;10.400;2024-01-15T04:09:38;12.30;;;3.03;;
51312;SDS011;37397;53.226;10.400;2024-01-15T04:12:05;9.23;;;3.58;;
51312;SDS011;37397;53.226;10.400;2024-01-15T04:14:31;14.05;;;3.80;;
51312;SDS011;37397;53.226;10.400;2024-01-15T04:16:58;11.00;;;2.65;;
51312;SDS011;37397;53.226;10.400;2024-01-15T04:19:24;12.10;;;3.03;;
51312;SDS011;37397;53.226;10.400;2024-01-15T04:21:51;13.15;;;3.00;;
51312;SDS011;37397;53.226;10.400;2024-01-15T04:24:18;12.10;;;3.25;;
51312;SDS011;37397;53.226;10.400;2024-01-15T04:26:45;9.25;;;3.10;;
51312;SDS011;37397;53.226;10.400;2024-01-15T04:29:11;14.00;;;3.38;;
51312;SDS011;37397;53.226;10.400;2024-01-15T04:31:38;17.77;;;3.30;;
51312;SDS011;37397;53.226;10.400;2024-01-15T04:34:05;14.88;;;2.88;;
51312;SDS011;37397;53.226;10.400;2024-01-15T04:36:32;18.08;;;3.50;;
51312;SDS011;37397;53.226;10.400;2024-01-15T04:39:05;16.35;;;3.08;;
51312;SDS011;37397;53.226;10.400;2024-01-15T04:41:33;15.10;;;2.55;;
51312;SDS011;37397;53.226;10.400;2024-01-15T04:43:59;16.52;;;2.97;;
51312;SDS011;37397;53.226;10.400;2024-01-15T04:46:27;14.88;;;3.00;;
51312;SDS011;37397;53.226;10.400;2024-01-15T04:48:54;15.25;;;3.28;;
51312;SDS011;37397;53.226;10.400;2024-01-15T04:51:20;15.38;;;3.58;;
51312;SDS011;37397;53.226;10.400;2024-01-15T04:53:47;16.80;;;3.20;;
51312;SDS011;37397;53.226;10.400;2024-01-15T04:56:13;16.52;;;3.20;;
51312;SDS011;37397;53.226;10.400;2024-01-15T04:58:40;16.25;;;3.55;;
51312;SDS011;37397;53.226;10.400;2024-01-15T05:01:07;16.20;;;3.85;;
51312;SDS011;37397;53.226;10.400;2024-01-15T05:03:34;13.40;;;3.22;;
51312;SDS011;37397;53.226;10.400;2024-01-15T05:06:01;19.95;;;3.85;;
51312;SDS011;37397;53.226;10.400;2024-01-15T05:08:27;20.23;;;3.58;;
51312;SDS011;37397;53.226;10.400;2024-01-15T05:10:54;20.80;;;4.57;;
51312;SDS011;37397;53.226;10.400;2024-01-15T05:13:20;17.52;;;3.42;;
51312;SDS011;37397;53.226;10.400;2024-01-15T05:15:47;20.13;;;3.67;;
51312;SDS011;37397;53.226;10.400;2024-01-15T05:18:14;19.95;;;3.95;;
51312;SDS011;37397;53.226;10.400;2024-01-15T05:20:40;19.95;;;4.30;;
51312;SDS011;37397;53.226;10.400;2024-01-15T05:23:07;16.77;;;3.88;;
51312;SDS011;37397;53.226;10.400;2024-01-15T05:25:34;15.88;;;4.07;;
51312;SDS011;37397;53.226;10.400;2024-01-15T05:28:01;22.02;;;4.18;;
51312;SDS011;37397;53.226;10.400;2024-01-15T05:30:27;17.73;;;4.22;;
51312;SDS011;37397;53.226;10.400;2024-01-15T05:32:54;21.92;;;5.05;;
51312;SDS011;37397;53.226;10.400;2024-01-15T05:35:21;18.90;;;4.78;;
51312;SDS011;37397;53.226;10.400;2024-01-15T05:37:47;22.77;;;5.20;;
51312;SDS011;37397;53.226;10.400;2024-01-15T05:40:14;15.80;;;4.68;;
51312;SDS011;37397;53.226;10.400;2024-01-15T05:42:41;18.25;;;4.47;;
51312;SDS011;37397;53.226;10.400;2024-01-15T05:45:08;13.75;;;4.00;;
51312;SDS011;37397;53.226;10.400;2024-01-15T05:47:35;20.42;;;5.70;;
51312;SDS011;37397;53.226;10.400;2024-01-15T05:50:01;20.92;;;5.30;;
51312;SDS011;37397;53.226;10.400;2024-01-15T05:52:29;30.52;;;5.47;;
51312;SDS011;37397;53.226;10.400;2024-01-15T05:54:55;18.25;;;4.30;;
51312;SDS011;37397;53.226;10.400;2024-01-15T05:57:22;19.98;;;5.22;;
51312;SDS011;37397;53.226;10.400;2024-01-15T05:59:49;22.83;;;5.38;;
51312;SDS011;37397;53.226;10.400;2024-01-15T06:02:16;14.77;;;4.80;;
51312;SDS011;37397;53.226;10.400;2024-01-15T06:04:43;16.92;;;4.50;;
51312;SDS011;37397;53.226;10.400;2024-01-15T06:07:09;19.50;;;4.38;;
51312;SDS011;37397;53.226;10.400;2024-01-15T06:09:36;19.30;;;5.43;;
51312;SDS011;37397;53.226;10.400;2024-01-15T06:12:03;24.45;;;5.47;;
51312;SDS011;37397;53.226;10.400;2024-01-15T06:14:29;18.17;;;5.07;;
51312;SDS011;37397;53.226;10.400;2024-01-15T06:16:56;18.85;;;4.82;;
51312;SDS011;37397;53.226;10.400;2024-01-15T06:19:23;16.13;;;4.60;;
51312;SDS011;37397;53.226;10.400;2024-01-15T06:21:50;17.15;;;5.25;;
51312;SDS011;37397;53.226;10.400;2024-01-15T06:24:16;17.52;;;4.47;;
51312;SDS011;37397;53.226;10.400;2024-01-15T06:26:46;22.77;;;4.70;;
51312;SDS011;37397;53.226;10.400;2024-01-15T06:29:14;16.80;;;5.13;;
51312;SDS011;37397;53.226;10.400;2024-01-15T06:31:40;21.50;;;4.85;;
51312;SDS011;37397;53.226;10.400;2024-01-15T06:34:07;18.85;;;4.40;;
51312;SDS011;37397;53.226;10.400;2024-01-15T06:36:34;16.77;;;4.25;;
51312;SDS011;37397;53.226;10.400;2024-01-15T06:39:00;20.35;;;4.93;;
51312;SDS011;37397;53.226;10.400;2024-01-15T06:41:27;18.20;;;4.57;;
51312;SDS011;37397;53.226;10.400;2024-01-15T06:43:53;16.10;;;4.22;;
51312;SDS011;37397;53.226;10.400;2024-01-15T06:46:20;17.27;;;4.50;;
51312;SDS011;37397;53.226;10.400;2024-01-15T06:48:48;19.63;;;3.80;;
51312;SDS011;37397;53.226;10.400;2024-01-15T06:51:15;19.98;;;4.40;;
51312;SDS011;37397;53.226;10.400;2024-01-15T06:53:42;18.15;;;3.75;;
51312;SDS011;37397;53.226;10.400;2024-01-15T06:56:09;20.45;;;4.57;;
51312;SDS011;37397;53.226;10.400;2024-01-15T06:58:35;15.45;;;3.60;;
51312;SDS011;37397;53.226;10.400;2024-01-15T07:01:02;12.55;;;3.35;;
51312;SDS011;37397;53.226;10.400;2024-01-15T07:03:29;17.45;;;3.72;;
51312;SDS011;37397;53.226;10.400;2024-01-15T07:05:55;13.73;;;3.47;;
51312;SDS011;37397;53.226;10.400;2024-01-15T07:08:22;15.50;;;2.63;;
51312;SDS011;37397;53.226;10.400;2024-01-15T07:10:48;17.15;;;3.22;;
51312;SDS011;37397;53.226;10.400;2024-01-15T07:13:15;16.65;;;4.22;;
51312;SDS011;37397;53.226;10.400;2024-01-15T07:15:42;9.98;;;2.90;;
51312;SDS011;37397;53.226;10.400;2024-01-15T07:18:08;13.07;;;3.00;;
51312;SDS011;37397;53.226;10.400;2024-01-15T07:20:35;12.18;;;2.83;;
51312;SDS011;37397;53.226;10.400;2024-01-15T07:23:01;10.80;;;2.97;;
51312;SDS011;37397;53.226;10.400;2024-01-15T07:25:29;12.18;;;3.15;;
51312;SDS011;37397;53.226;10.400;2024-01-15T07:27:55;13.07;;;3.03;;
51312;SDS011;37397;53.226;10.400;2024-01-15T07:30:22;13.18;;;3.25;;
51312;SDS011;37397;53.226;10.400;2024-01-15T07:32:49;17.65;;;3.50;;
51312;SDS011;37397;53.226;10.400;2024-01-15T07:35:16;15.32;;;3.20;;
51312;SDS011;37397;53.226;10.400;2024-01-15T07:37:43;14.25;;;3.42;;
51312;SDS011;37397;53.226;10.400;2024-01-15T07:40:09;15.32;;;3.22;;
51312;SDS011;37397;53.226;10.400;2024-01-15T07:42:37;10.45;;;3.45;;
51312;SDS011;37397;53.226;10.400;2024-01-15T07:45:04;14.50;;;3.38;;
51312;SDS011;37397;53.226;10.400;2024-01-15T07:47:32;10.50;;;3.10;;
51312;SDS011;37397;53.226;10.400;2024-01-15T07:49:58;12.57;;;3.15;;
51312;SDS011;37397;53.226;10.400;2024-01-15T07:52:31;11.85;;;3.45;;
51312;SDS011;37397;53.226;10.400;2024-01-15T07:54:58;14.07;;;3.22;;
51312;SDS011;37397;53.226;10.400;2024-01-15T07:57:27;10.52;;;3.22;;
51312;SDS011;37397;53.226;10.400;2024-01-15T07:59:54;10.13;;;3.08;;
51312;SDS011;37397;53.226;10.400;2024-01-15T08:02:20;10.55;;;2.45;;
51312;SDS011;37397;53.226;10.400;2024-01-15T08:04:48;8.82;;;2.65;;
51312;SDS011;37397;53.226;10.400;2024-01-15T08:07:14;10.38;;;2.20;;
51312;SDS011;37397;53.226;10.400;2024-01-15T08:09:41;7.45;;;2.55;;
51312;SDS011;37397;53.226;10.400;2024-01-15T08:12:08;11.07;;;2.72;;
51312;SDS011;37397;53.226;10.400;2024-01-15T08:14:36;9.95;;;2.53;;
51312;SDS011;37397;53.226;10.400;2024-01-15T08:17:03;9.38;;;2.60;;
51312;SDS011;37397;53.226;10.400;2024-01-15T08:19:30;8.50;;;2.17;;
51312;SDS011;37397;53.226;10.400;2024-01-15T08:21:57;6.70;;;1.88;;
51312;SDS011;37397;53.226;10.400;2024-01-15T08:24:23;8.20;;;2.35;;
51312;SDS011;37397;53.226;10.400;2024-01-15T08:26:50;7.30;;;1.88;;
51312;SDS011;37397;53.226;10.400;2024-01-15T08:29:17;8.32;;;1.75;;
51312;SDS011;37397;53.226;10.400;2024-01-15T08:31:45;7.07;;;1.98;;
51312;SDS011;37397;53.226;10.400;2024-01-15T08:34:12;9.98;;;2.53;;
51312;SDS011;37397;53.226;10.400;2024-01-15T08:36:39;8.30;;;1.50;;
51312;SDS011;37397;53.226;10.400;2024-01-15T08:39:07;5.68;;;1.40;;
51312;SDS011;37397;53.226;10.400;2024-01-15T08:41:35;2.40;;;1.33;;
51312;SDS011;37397;53.226;10.400;2024-01-15T08:44:02;7.22;;;1.30;;
51312;SDS011;37397;53.226;10.400;2024-01-15T08:46:29;2.53;;;1.00;;
51312;SDS011;37397;53.226;10.400;2024-01-15T08:48:55;2.58;;;1.05;;
51312;SDS011;37397;53.226;10.400;2024-01-15T08:51:22;3.50;;;1.30;;
51312;SDS011;37397;53.226;10.400;2024-01-15T08:53:49;3.13;;;1.30;;
51312;SDS011;37397;53.226;10.400;2024-01-15T08:56:15;3.58;;;1.25;;
51312;SDS011;37397;53.226;10.400;2024-01-15T08:58:42;4.30;;;1.20;;
51312;SDS011;37397;53.226;10.400;2024-01-15T09:01:09;4.82;;;1.20;;
51312;SDS011;37397;53.226;10.400;2024-01-15T09:03:35;2.33;;;1.13;;
51312;SDS011;37397;53.226;10.400;2024-01-15T09:06:03;2.97;;;1.13;;
51312;SDS011;37397;53.226;10.400;2024-01-15T09:08:30;2.42;;;1.00;;
51312;SDS011;37397;53.226;10.400;2024-01-15T09:10:57;4.43;;;1.30;;
51312;SDS011;37397;53.226;10.400;2024-01-15T09:13:25;3.15;;;1.17;;
51312;SDS011;37397;53.226;10.400;2024-01-15T09:15:51;2.58;;;1.13;;
51312;SDS011;37397;53.226;10.400;2024-01-15T09:18:33;3.58;;;1.30;;
51312;SDS011;37397;53.226;10.400;2024-01-15T09:21:00;4.47;;;1.40;;
51312;SDS011;37397;53.226;10.400;2024-01-15T09:23:29;2.30;;;1.30;;
51312;SDS011;37397;53.226;10.400;2024-01-15T09:25:56;2.05;;;1.48;;
51312;SDS011;37397;53.226;10.400;2024-01-15T09:28:22;2.20;;;1.00;;
51312;SDS011;37397;53.226;10.400;2024-01-15T09:30:49;1.92;;;1.30;;
51312;SDS011;37397;53.226;10.400;2024-01-15T09:33:16;2.92;;;1.30;;
51312;SDS011;37397;53.226;10.400;2024-01-15T09:35:42;3.33;;;1.55;;
51312;SDS011;37397;53.226;10.400;2024-01-15T09:38:09;1.52;;;1.02;;
51312;SDS011;37397;53.226;10.400;2024-01-15T09:40:35;2.85;;;1.20;;
51312;SDS011;37397;53.226;10.400;2024-01-15T09:43:04;3.83;;;1.30;;
51312;SDS011;37397;53.226;10.400;2024-01-15T09:45:31;2.05;;;1.15;;
51312;SDS011;37397;53.226;10.400;2024-01-15T09:47:58;1.40;;;1.13;;
51312;SDS011;37397;53.226;10.400;2024-01-15T09:50:25;3.88;;;1.08;;
51312;SDS011;37397;53.226;10.400;2024-01-15T09:52:52;2.03;;;1.20;;
51312;SDS011;37397;53.226;10.400;2024-01-15T09:55:20;2.33;;;1.08;;
51312;SDS011;37397;53.226;10.400;2024-01-15T09:57:48;3.58;;;1.10;;
51312;SDS011;37397;53.226;10.400;2024-01-15T10:00:17;4.57;;;1.25;;
51312;SDS011;37397;53.226;10.400;2024-01-15T10:02:45;4.47;;;1.40;;
51312;SDS011;37397;53.226;10.400;2024-01-15T10:05:11;3.35;;;1.13;;
51312;SDS011;37397;53.226;10.400;2024-01-15T10:07:38;5.15;;;1.30;;
51312;SDS011;37397;53.226;10.400;2024-01-15T10:10:06;6.88;;;1.23;;
51312;SDS011;37397;53.226;10.400;2024-01-15T10:12:33;3.67;;;1.13;;
51312;SDS011;37397;53.226;10.400;2024-01-15T10:15:01;4.15;;;1.40;;
51312;SDS011;37397;53.226;10.400;2024-01-15T10:17:28;3.97;;;1.60;;
51312;SDS011;37397;53.226;10.400;2024-01-15T10:19:55;3.25;;;1.52;;
51312;SDS011;37397;53.226;10.400;2024-01-15T10:22:21;4.25;;;1.67;;
51312;SDS011;37397;53.226;10.400;2024-01-15T10:24:48;5.45;;;1.67;;
51312;SDS011;37397;53.226;10.400;2024-01-15T10:27:15;6.03;;;1.90;;
51312;SDS011;37397;53.226;10.400;2024-01-15T10:29:42;3.58;;;1.70;;
51312;SDS011;37397;53.226;10.400;2024-01-15T10:32:09;9.20;;;2.35;;
51312;SDS011;37397;53.226;10.400;2024-01-15T10:34:39;4.43;;;2.22;;
51312;SDS011;37397;53.226;10.400;2024-01-15T10:37:08;5.05;;;2.20;;
51312;SDS011;37397;53.226;10.400;2024-01-15T10:39:35;4.95;;;2.38;;
51312;SDS011;37397;53.226;10.400;2024-01-15T10:42:04;9.32;;;2.65;;
51312;SDS011;37397;53.226;10.400;2024-01-15T10:44:31;5.75;;;2.55;;
51312;SDS011;37397;53.226;10.400;2024-01-15T10:46:57;6.88;;;3.08;;
51312;SDS011;37397;53.226;10.400;2024-01-15T10:49:24;7.35;;;3.10;;
51312;SDS011;37397;53.226;10.400;2024-01-15T10:54:25;5.65;;;3.05;;
51312;SDS011;37397;53.226;10.400;2024-01-15T10:56:53;5.93;;;3.35;;
51312;SDS011;37397;53.226;10.400;2024-01-15T10:59:22;5.32;;;3.15;;
51312;SDS011;37397;53.226;10.400;2024-01-15T11:01:49;6.75;;;3.20;;
51312;SDS011;37397;53.226;10.400;2024-01-15T11:04:17;6.50;;;3.38;;
51312;SDS011;37397;53.226;10.400;2024-01-15T11:06:44;7.40;;;3.70;;
51312;SDS011;37397;53.226;10.400;2024-01-15T11:09:12;6.45;;;3.20;;
51312;SDS011;37397;53.226;10.400;2024-01-15T11:11:42;5.05;;;2.95;;
51312;SDS011;37397;53.226;10.400;2024-01-15T11:14:10;6.68;;;3.08;;
51312;SDS011;37397;53.226;10.400;2024-01-15T11:16:56;5.30;;;3.65;;
51312;SDS011;37397;53.226;10.400;2024-01-15T11:19:25;6.88;;;3.30;;
51312;SDS011;37397;53.226;10.400;2024-01-15T11:21:52;5.15;;;3.25;;
51312;SDS011;37397;53.226;10.400;2024-01-15T11:24:33;7.47;;;3.42;;
51312;SDS011;37397;53.226;10.400;2024-01-15T11:27:02;4.95;;;3.00;;
51312;SDS011;37397;53.226;10.400;2024-01-15T11:29:30;6.22;;;3.55;;
51312;SDS011;37397;53.226;10.400;2024-01-15T11:32:08;4.97;;;3.08;;
51312;SDS011;37397;53.226;10.400;2024-01-15T11:34:55;4.97;;;3.10;;
51312;SDS011;37397;53.226;10.400;2024-01-15T11:40:18;10.82;;;3.97;;
51312;SDS011;37397;53.226;10.400;2024-01-15T11:42:49;6.45;;;3.60;;
51312;SDS011;37397;53.226;10.400;2024-01-15T11:45:17;6.35;;;3.45;;
51312;SDS011;37397;53.226;10.400;2024-01-15T11:53:18;5.38;;;3.45;;
51312;SDS011;37397;53.226;10.400;2024-01-15T11:55:52;7.18;;;3.50;;
51312;SDS011;37397;53.226;10.400;2024-01-15T11:58:24;6.57;;;3.72;;
51312;SDS011;37397;53.226;10.400;2024-01-15T12:00:51;8.85;;;3.90;;
51312;SDS011;37397;53.226;10.400;2024-01-15T12:03:23;8.32;;;3.70;;
51312;SDS011;37397;53.226;10.400;2024-01-15T12:05:53;6.78;;;3.33;;
51312;SDS011;37397;53.226;10.400;2024-01-15T12:08:21;6.38;;;3.22;;
51312;SDS011;37397;53.226;10.400;2024-01-15T12:10:48;6.75;;;2.80;;
51312;SDS011;37397;53.226;10.400;2024-01-15T12:13:15;7.13;;;2.70;;
51312;SDS011;37397;53.226;10.400;2024-01-15T12:15:44;6.78;;;2.65;;
51312;SDS011;37397;53.226;10.400;2024-01-15T12:18:13;4.97;;;2.97;;
51312;SDS011;37397;53.226;10.400;2024-01-15T12:20:43;7.07;;;2.83;;
51312;SDS011;37397;53.226;10.400;2024-01-15T12:23:13;6.85;;;2.70;;
51312;SDS011;37397;53.226;10.400;2024-01-15T12:25:44;4.35;;;2.25;;
51312;SDS011;37397;53.226;10.400;2024-01-15T12:28:11;7.22;;;2.28;;
51312;SDS011;37397;53.226;10.400;2024-01-15T12:30:38;4.60;;;2.20;;
51312;SDS011;37397;53.226;10.400;2024-01-15T12:33:05;4.97;;;2.20;;
51312;SDS011;37397;53.226;10.400;2024-01-15T12:35:33;4.45;;;2.25;;
51312;SDS011;37397;53.226;10.400;2024-01-15T12:38:00;5.30;;;1.98;;
51312;SDS011;37397;53.226;10.400;2024-01-15T12:40:31;4.00;;;2.05;;
51312;SDS011;37397;53.226;10.400;2024-01-15T12:43:00;5.07;;;1.90;;
51312;SDS011;37397;53.226;10.400;2024-01-15T12:45:27;3.42;;;2.17;;
51312;SDS011;37397;53.226;10.400;2024-01-15T12:47:53;4.47;;;2.20;;
51312;SDS011;37397;53.226;10.400;2024-01-15T12:50:23;3.55;;;1.80;;
51312;SDS011;37397;53.226;10.400;2024-01-15T12:52:50;4.15;;;2.17;;
51312;SDS011;37397;53.226;10.400;2024-01-15T12:55:17;4.18;;;2.20;;
51312;SDS011;37397;53.226;10.400;2024-01-15T12:57:44;5.03;;;2.17;;
51312;SDS011;37397;53.226;10.400;2024-01-15T13:00:12;4.72;;;2.47;;
51312;SDS011;37397;53.226;10.400;2024-01-15T13:02:41;4.18;;;2.58;;
51312;SDS011;37397;53.226;10.400;2024-01-15T13:05:09;5.07;;;3.00;;
51312;SDS011;37397;53.226;10.400;2024-01-15T13:07:41;4.57;;;2.80;;
51312;SDS011;37397;53.226;10.400;2024-01-15T13:10:08;5.68;;;2.63;;
51312;SDS011;37397;53.226;10.400;2024-01-15T13:12:36;3.55;;;2.13;;
51312;SDS011;37397;53.226;10.400;2024-01-15T13:15:05;4.13;;;2.38;;
51312;SDS011;37397;53.226;10.400;2024-01-15T13:17:32;2.75;;;1.88;;
51312;SDS011;37397;53.226;10.400;2024-01-15T13:19:58;5.18;;;1.98;;
51312;SDS011;37397;53.226;10.400;2024-01-15T13:22:26;2.67;;;1.50;;
51312;SDS011;37397;53.226;10.400;2024-01-15T13:24:59;3.15;;;1.70;;
51312;SDS011;37397;53.226;10.400;2024-01-15T13:27:26;2.25;;;1.55;;
51312;SDS011;37397;53.226;10.400;2024-01-15T13:29:53;2.03;;;1.40;;
51312;SDS011;37397;53.226;10.400;2024-01-15T13:32:25;2.47;;;1.40;;
51312;SDS011;37397;53.226;10.400;2024-01-15T13:34:55;3.20;;;1.77;;
51312;SDS011;37397;53.226;10.400;2024-01-15T13:37:23;1.77;;;1.40;;
51312;SDS011;37397;53.226;10.400;2024-01-15T13:39:52;1.52;;;1.20;;
51312;SDS011;37397;53.226;10.400;2024-01-15T13:42:20;2.55;;;1.27;;
51312;SDS011;37397;53.226;10.400;2024-01-15T13:44:50;2.25;;;1.17;;
51312;SDS011;37397;53.226;10.400;2024-01-15T13:47:17;1.23;;;1.10;;
51312;SDS011;37397;53.226;10.400;2024-01-15T13:49:44;2.08;;;1.30;;
51312;SDS011;37397;53.226;10.400;2024-01-15T13:52:11;3.88;;;1.77;;
51312;SDS011;37397;53.226;10.400;2024-01-15T13:54:39;2.50;;;1.33;;
51312;SDS011;37397;53.226;10.400;2024-01-15T13:57:16;1.48;;;1.38;;
51312;SDS011;37397;53.226;10.400;2024-01-15T13:59:44;3.67;;;1.65;;
51312;SDS011;37397;53.226;10.400;2024-01-15T14:02:11;3.45;;;1.83;;
51312;SDS011;37397;53.226;10.400;2024-01-15T14:04:40;2.83;;;1.27;;
51312;SDS011;37397;53.226;10.400;2024-01-15T14:07:07;1.38;;;1.20;;
51312;SDS011;37397;53.226;10.400;2024-01-15T14:09:34;2.55;;;1.25;;
51312;SDS011;37397;53.226;10.400;2024-01-15T14:12:00;1.63;;;1.10;;
51312;SDS011;37397;53.226;10.400;2024-01-15T14:14:27;1.83;;;1.20;;
51312;SDS011;37397;53.226;10.400;2024-01-15T14:16:54;2.67;;;1.27;;
51312;SDS011;37397;53.226;10.400;2024-01-15T14:19:21;1.58;;;1.25;;
51312;SDS011;37397;53.226;10.400;2024-01-15T14:21:48;4.80;;;1.20;;
51312;SDS011;37397;53.226;10.400;2024-01-15T14:24:15;3.08;;;1.30;;
51312;SDS011;37397;53.226;10.400;2024-01-15T14:26:43;3.08;;;1.30;;
51312;SDS011;37397;53.226;10.400;2024-01-15T14:29:10;4.03;;;1.17;;
51312;SDS011;37397;53.226;10.400;2024-01-15T14:31:36;2.67;;;1.17;;
51312;SDS011;37397;53.226;10.400;2024-01-15T14:34:03;2.17;;;1.17;;
51312;SDS011;37397;53.226;10.400;2024-01-15T14:36:30;1.75;;;1.00;;
51312;SDS011;37397;53.226;10.400;2024-01-15T14:38:56;2.03;;;1.10;;
51312;SDS011;37397;53.226;10.400;2024-01-15T14:41:23;2.55;;;1.45;;